sensor_id;sensor_type;location;lat;lon;timestamp;P1;durP1;ratioP1;P2;durP2;ratioP2
22480;SDS011;11407;56.964;-2.212;2022-12-08T00:01:18;2.70;;;0.90;;
22480;SDS011;11407;56.964;-2.212;2022-12-08T00:03:45;5.03;;;1.17;;
22480;SDS011;11407;56.964;-2.212;2022-12-08T00:09:14;4.37;;;1.07;;
22480;SDS011;11407;56.964;-2.212;2022-12-08T00:12:10;4.73;;;0.80;;
22480;SDS011;11407;56.964;-2.212;2022-12-08T00:14:41;3.33;;;1.03;;
22480;SDS011;11407;56.964;-2.212;2022-12-08T00:17:09;3.53;;;1.10;;
22480;SDS011;11407;56.964;-2.212;2022-12-08T00:19:35;3.40;;;0.80;;
22480;SDS011;11407;56.964;-2.212;2022-12-08T00:22:03;3.03;;;1.00;;
22480;SDS011;11407;56.964;-2.212;2022-12-08T00:24:30;5.43;;;1.00;;
22480;SDS011;11407;56.964;-2.212;2022-12-08T00:26:57;4.60;;;1.40;;
22480;SDS011;11407;56.964;-2.212;2022-12-08T00:29:23;3.03;;;0.83;;
22480;SDS011;11407;56.964;-2.212;2022-12-08T00:31:50;5.80;;;1.10;;
22480;SDS011;11407;56.964;-2.212;2022-12-08T00:34:15;3.37;;;1.00;;
22480;SDS011;11407;56.964;-2.212;2022-12-08T00:36:41;4.00;;;0.60;;
22480;SDS011;11407;56.964;-2.212;2022-12-08T00:39:11;6.10;;;1.07;;
22480;SDS011;11407;56.964;-2.212;2022-12-08T00:41:37;5.40;;;0.90;;
22480;SDS011;11407;56.964;-2.212;2022-12-08T00:44:21;1.80;;;0.77;;
22480;SDS011;11407;56.964;-2.212;2022-12-08T00:46:47;4.37;;;0.70;;
22480;SDS011;11407;56.964;-2.212;2022-12-08T00:49:13;3.87;;;0.50;;
22480;SDS011;11407;56.964;-2.212;2022-12-08T00:51:39;6.03;;;0.90;;
22480;SDS011;11407;56.964;-2.212;2022-12-08T00:54:05;2.53;;;0.57;;
22480;SDS011;11407;56.964;-2.212;2022-12-08T00:56:32;2.73;;;0.47;;
22480;SDS011;11407;56.964;-2.212;2022-12-08T00:58:58;1.27;;;0.70;;
22480;SDS011;11407;56.964;-2.212;2022-12-08T01:01:24;3.97;;;0.80;;
22480;SDS011;11407;56.964;-2.212;2022-12-08T01:03:50;3.33;;;0.60;;
22480;SDS011;11407;56.964;-2.212;2022-12-08T01:06:15;3.50;;;0.60;;
22480;SDS011;11407;56.964;-2.212;2022-12-08T01:08:41;3.47;;;0.83;;
22480;SDS011;11407;56.964;-2.212;2022-12-08T01:11:14;2.57;;;0.80;;
22480;SDS011;11407;56.964;-2.212;2022-12-08T01:13:41;5.27;;;0.80;;
22480;SDS011;11407;56.964;-2.212;2022-12-08T01:16:07;4.73;;;0.73;;
22480;SDS011;11407;56.964;-2.212;2022-12-08T01:18:33;2.37;;;0.60;;
22480;SDS011;11407;56.964;-2.212;2022-12-08T01:21:03;1.13;;;0.63;;
22480;SDS011;11407;56.964;-2.212;2022-12-08T01:23:30;0.83;;;0.50;;
22480;SDS011;11407;56.964;-2.212;2022-12-08T01:25:59;3.47;;;1.00;;
22480;SDS011;11407;56.964;-2.212;2022-12-08T01:28:30;1.60;;;0.77;;
22480;SDS011;11407;56.964;-2.212;2022-12-08T01:30:56;3.63;;;0.80;;
22480;SDS011;11407;56.964;-2.212;2022-12-08T01:33:23;2.63;;;0.70;;
22480;SDS011;11407;56.964;-2.212;2022-12-08T01:35:49;1.60;;;0.50;;
22480;SDS011;11407;56.964;-2.212;2022-12-08T01:38:14;2.07;;;0.60;;
22480;SDS011;11407;56.964;-2.212;2022-12-08T01:40:39;2.13;;;0.50;;
22480;SDS011;11407;56.964;-2.212;2022-12-08T01:43:05;1.10;;;0.50;;
22480;SDS011;11407;56.964;-2.212;2022-12-08T01:45:30;3.07;;;0.73;;
22480;SDS011;11407;56.964;-2.212;2022-12-08T01:47:57;1.67;;;0.60;;
22480;SDS011;11407;56.964;-2.212;2022-12-08T01:50:27;1.87;;;0.70;;
22480;SDS011;11407;56.964;-2.212;2022-12-08T01:53:01;4.30;;;0.80;;
22480;SDS011;11407;56.964;-2.212;2022-12-08T01:55:38;2.83;;;0.80;;
22480;SDS011;11407;56.964;-2.212;2022-12-08T01:58:12;3.40;;;0.43;;
22480;SDS011;11407;56.964;-2.212;2022-12-08T02:00:50;1.73;;;0.60;;
22480;SDS011;11407;56.964;-2.212;2022-12-08T02:03:28;3.13;;;0.60;;
22480;SDS011;11407;56.964;-2.212;2022-12-08T02:06:02;3.33;;;0.50;;
22480;SDS011;11407;56.964;-2.212;2022-12-08T02:08:28;3.30;;;0.53;;
22480;SDS011;11407;56.964;-2.212;2022-12-08T02:10:55;2.07;;;0.37;;
22480;SDS011;11407;56.964;-2.212;2022-12-08T02:13:21;1.43;;;0.50;;
22480;SDS011;11407;56.964;-2.212;2022-12-08T02:21:05;3.97;;;0.73;;
22480;SDS011;11407;56.964;-2.212;2022-12-08T02:29:23;2.10;;;0.53;;
22480;SDS011;11407;56.964;-2.212;2022-12-08T02:31:56;1.60;;;0.63;;
22480;SDS011;11407;56.964;-2.212;2022-12-08T02:37:07;5.03;;;0.90;;
22480;SDS011;11407;56.964;-2.212;2022-12-08T02:44:59;1.20;;;0.70;;
22480;SDS011;11407;56.964;-2.212;2022-12-08T02:47:32;1.67;;;0.40;;
22480;SDS011;11407;56.964;-2.212;2022-12-08T02:49:58;2.33;;;0.40;;
22480;SDS011;11407;56.964;-2.212;2022-12-08T02:54:50;1.80;;;0.50;;
22480;SDS011;11407;56.964;-2.212;2022-12-08T03:07:58;2.30;;;0.30;;
22480;SDS011;11407;56.964;-2.212;2022-12-08T03:10:32;1.37;;;0.40;;
22480;SDS011;11407;56.964;-2.212;2022-12-08T03:13:01;2.37;;;0.73;;
22480;SDS011;11407;56.964;-2.212;2022-12-08T03:15:41;2.07;;;0.50;;
22480;SDS011;11407;56.964;-2.212;2022-12-08T03:18:12;2.10;;;0.57;;
22480;SDS011;11407;56.964;-2.212;2022-12-08T03:20:40;3.40;;;0.40;;
22480;SDS011;11407;56.964;-2.212;2022-12-08T03:23:08;1.97;;;0.47;;
22480;SDS011;11407;56.964;-2.212;2022-12-08T03:25:39;2.00;;;0.73;;
22480;SDS011;11407;56.964;-2.212;2022-12-08T03:28:12;2.97;;;0.40;;
22480;SDS011;11407;56.964;-2.212;2022-12-08T03:30:38;2.40;;;0.50;;
22480;SDS011;11407;56.964;-2.212;2022-12-08T03:33:29;1.03;;;0.50;;
22480;SDS011;11407;56.964;-2.212;2022-12-08T03:35:56;1.30;;;0.30;;
22480;SDS011;11407;56.964;-2.212;2022-12-08T03:38:23;1.53;;;0.53;;
22480;SDS011;11407;56.964;-2.212;2022-12-08T03:40:49;1.00;;;0.40;;
22480;SDS011;11407;56.964;-2.212;2022-12-08T03:43:33;7.30;;;0.57;;
22480;SDS011;11407;56.964;-2.212;2022-12-08T03:45:58;1.40;;;0.40;;
22480;SDS011;11407;56.964;-2.212;2022-12-08T03:48:24;3.27;;;0.60;;
22480;SDS011;11407;56.964;-2.212;2022-12-08T03:50:49;1.73;;;0.80;;
22480;SDS011;11407;56.964;-2.212;2022-12-08T03:53:15;1.13;;;0.50;;
22480;SDS011;11407;56.964;-2.212;2022-12-08T03:55:40;1.63;;;0.60;;
22480;SDS011;11407;56.964;-2.212;2022-12-08T03:58:05;2.33;;;0.50;;
22480;SDS011;11407;56.964;-2.212;2022-12-08T04:00:31;3.87;;;0.70;;
22480;SDS011;11407;56.964;-2.212;2022-12-08T04:02:56;1.40;;;0.50;;
22480;SDS011;11407;56.964;-2.212;2022-12-08T04:05:22;1.33;;;0.40;;
22480;SDS011;11407;56.964;-2.212;2022-12-08T04:07:47;1.67;;;0.40;;
22480;SDS011;11407;56.964;-2.212;2022-12-08T04:10:12;0.87;;;0.50;;
22480;SDS011;11407;56.964;-2.212;2022-12-08T04:12:38;1.80;;;0.70;;
22480;SDS011;11407;56.964;-2.212;2022-12-08T04:15:03;2.07;;;1.10;;
22480;SDS011;11407;56.964;-2.212;2022-12-08T04:17:29;1.77;;;0.60;;
22480;SDS011;11407;56.964;-2.212;2022-12-08T04:19:54;3.20;;;0.60;;
22480;SDS011;11407;56.964;-2.212;2022-12-08T04:22:20;3.37;;;0.63;;
22480;SDS011;11407;56.964;-2.212;2022-12-08T04:24:45;2.37;;;0.70;;
22480;SDS011;11407;56.964;-2.212;2022-12-08T04:27:10;1.43;;;0.60;;
22480;SDS011;11407;56.964;-2.212;2022-12-08T04:29:36;1.03;;;0.40;;
22480;SDS011;11407;56.964;-2.212;2022-12-08T04:32:01;0.97;;;0.60;;
22480;SDS011;11407;56.964;-2.212;2022-12-08T04:34:27;2.57;;;0.50;;
22480;SDS011;11407;56.964;-2.212;2022-12-08T04:36:52;1.87;;;0.40;;
22480;SDS011;11407;56.964;-2.212;2022-12-08T04:39:17;3.07;;;0.50;;
22480;SDS011;11407;56.964;-2.212;2022-12-08T04:41:43;2.43;;;0.67;;
22480;SDS011;11407;56.964;-2.212;2022-12-08T04:44:08;1.73;;;0.40;;
22480;SDS011;11407;56.964;-2.212;2022-12-08T04:46:33;1.73;;;0.47;;
22480;SDS011;11407;56.964;-2.212;2022-12-08T04:48:59;2.00;;;0.50;;
22480;SDS011;11407;56.964;-2.212;2022-12-08T04:51:24;2.23;;;0.37;;
22480;SDS011;11407;56.964;-2.212;2022-12-08T04:53:51;2.30;;;0.57;;
22480;SDS011;11407;56.964;-2.212;2022-12-08T04:56:17;4.23;;;0.60;;
22480;SDS011;11407;56.964;-2.212;2022-12-08T04:58:43;6.37;;;0.57;;
22480;SDS011;11407;56.964;-2.212;2022-12-08T05:01:09;2.33;;;0.60;;
22480;SDS011;11407;56.964;-2.212;2022-12-08T05:03:35;1.17;;;0.30;;
22480;SDS011;11407;56.964;-2.212;2022-12-08T05:06:01;4.87;;;0.70;;
22480;SDS011;11407;56.964;-2.212;2022-12-08T05:08:27;2.40;;;0.40;;
22480;SDS011;11407;56.964;-2.212;2022-12-08T05:10:53;2.97;;;0.60;;
22480;SDS011;11407;56.964;-2.212;2022-12-08T05:13:18;2.53;;;0.80;;
22480;SDS011;11407;56.964;-2.212;2022-12-08T05:15:44;3.53;;;0.80;;
22480;SDS011;11407;56.964;-2.212;2022-12-08T05:18:09;0.93;;;0.50;;
22480;SDS011;11407;56.964;-2.212;2022-12-08T05:20:35;3.47;;;0.70;;
22480;SDS011;11407;56.964;-2.212;2022-12-08T05:23:01;2.77;;;0.50;;
22480;SDS011;11407;56.964;-2.212;2022-12-08T05:25:26;4.70;;;0.70;;
22480;SDS011;11407;56.964;-2.212;2022-12-08T05:27:52;0.97;;;0.53;;
22480;SDS011;11407;56.964;-2.212;2022-12-08T05:30:17;2.60;;;0.63;;
22480;SDS011;11407;56.964;-2.212;2022-12-08T05:32:42;4.60;;;0.77;;
22480;SDS011;11407;56.964;-2.212;2022-12-08T05:35:08;1.87;;;0.50;;
22480;SDS011;11407;56.964;-2.212;2022-12-08T05:37:33;1.13;;;0.60;;
22480;SDS011;11407;56.964;-2.212;2022-12-08T05:39:59;1.33;;;0.80;;
22480;SDS011;11407;56.964;-2.212;2022-12-08T05:42:24;3.23;;;0.73;;
22480;SDS011;11407;56.964;-2.212;2022-12-08T05:44:50;3.40;;;0.60;;
22480;SDS011;11407;56.964;-2.212;2022-12-08T05:47:16;1.73;;;0.57;;
22480;SDS011;11407;56.964;-2.212;2022-12-08T05:49:41;2.80;;;0.73;;
22480;SDS011;11407;56.964;-2.212;2022-12-08T05:52:06;2.70;;;0.50;;
22480;SDS011;11407;56.964;-2.212;2022-12-08T05:54:32;1.10;;;0.50;;
22480;SDS011;11407;56.964;-2.212;2022-12-08T05:56:58;1.50;;;0.37;;
22480;SDS011;11407;56.964;-2.212;2022-12-08T05:59:23;1.67;;;0.50;;
22480;SDS011;11407;56.964;-2.212;2022-12-08T06:01:49;1.20;;;0.40;;
22480;SDS011;11407;56.964;-2.212;2022-12-08T06:04:14;1.70;;;0.30;;
22480;SDS011;11407;56.964;-2.212;2022-12-08T06:06:40;1.57;;;0.40;;
22480;SDS011;11407;56.964;-2.212;2022-12-08T06:09:05;1.97;;;0.50;;
22480;SDS011;11407;56.964;-2.212;2022-12-08T06:11:31;3.23;;;0.40;;
22480;SDS011;11407;56.964;-2.212;2022-12-08T06:13:57;1.53;;;0.50;;
22480;SDS011;11407;56.964;-2.212;2022-12-08T06:16:23;0.43;;;0.40;;
22480;SDS011;11407;56.964;-2.212;2022-12-08T06:18:50;1.23;;;0.50;;
22480;SDS011;11407;56.964;-2.212;2022-12-08T06:21:16;0.70;;;0.40;;
22480;SDS011;11407;56.964;-2.212;2022-12-08T06:23:42;2.20;;;0.40;;
22480;SDS011;11407;56.964;-2.212;2022-12-08T06:26:09;1.83;;;0.40;;
22480;SDS011;11407;56.964;-2.212;2022-12-08T06:28:36;0.70;;;0.33;;
22480;SDS011;11407;56.964;-2.212;2022-12-08T06:31:06;0.87;;;0.30;;
22480;SDS011;11407;56.964;-2.212;2022-12-08T06:33:33;0.27;;;0.17;;
22480;SDS011;11407;56.964;-2.212;2022-12-08T06:35:58;0.57;;;0.30;;
22480;SDS011;11407;56.964;-2.212;2022-12-08T06:38:24;0.87;;;0.33;;
22480;SDS011;11407;56.964;-2.212;2022-12-08T06:40:56;0.83;;;0.23;;
22480;SDS011;11407;56.964;-2.212;2022-12-08T06:43:22;0.57;;;0.20;;
22480;SDS011;11407;56.964;-2.212;2022-12-08T06:45:48;0.50;;;0.30;;
22480;SDS011;11407;56.964;-2.212;2022-12-08T06:48:14;0.33;;;0.20;;
22480;SDS011;11407;56.964;-2.212;2022-12-08T06:50:39;0.67;;;0.30;;
22480;SDS011;11407;56.964;-2.212;2022-12-08T06:53:04;0.20;;;0.20;;
22480;SDS011;11407;56.964;-2.212;2022-12-08T06:55:30;1.10;;;0.40;;
22480;SDS011;11407;56.964;-2.212;2022-12-08T06:57:55;0.20;;;0.20;;
22480;SDS011;11407;56.964;-2.212;2022-12-08T07:00:21;0.30;;;0.20;;
22480;SDS011;11407;56.964;-2.212;2022-12-08T07:02:47;0.17;;;0.17;;
22480;SDS011;11407;56.964;-2.212;2022-12-08T07:05:12;0.10;;;0.10;;
22480;SDS011;11407;56.964;-2.212;2022-12-08T07:07:38;0.20;;;0.20;;
22480;SDS011;11407;56.964;-2.212;2022-12-08T07:10:04;1.50;;;0.67;;
22480;SDS011;11407;56.964;-2.212;2022-12-08T07:12:29;0.80;;;0.50;;
22480;SDS011;11407;56.964;-2.212;2022-12-08T07:14:55;1.63;;;0.60;;
22480;SDS011;11407;56.964;-2.212;2022-12-08T07:17:20;0.50;;;0.20;;
22480;SDS011;11407;56.964;-2.212;2022-12-08T07:19:45;0.77;;;0.43;;
22480;SDS011;11407;56.964;-2.212;2022-12-08T07:22:11;0.60;;;0.57;;
22480;SDS011;11407;56.964;-2.212;2022-12-08T07:24:36;0.90;;;0.60;;
22480;SDS011;11407;56.964;-2.212;2022-12-08T07:27:02;1.40;;;0.70;;
22480;SDS011;11407;56.964;-2.212;2022-12-08T07:29:27;1.20;;;0.70;;
22480;SDS011;11407;56.964;-2.212;2022-12-08T07:31:53;0.80;;;0.60;;
22480;SDS011;11407;56.964;-2.212;2022-12-08T07:34:18;0.20;;;0.20;;
22480;SDS011;11407;56.964;-2.212;2022-12-08T07:36:43;0.30;;;0.30;;
22480;SDS011;11407;56.964;-2.212;2022-12-08T07:39:09;0.40;;;0.33;;
22480;SDS011;11407;56.964;-2.212;2022-12-08T07:41:34;0.30;;;0.30;;
22480;SDS011;11407;56.964;-2.212;2022-12-08T07:44:00;0.70;;;0.50;;
22480;SDS011;11407;56.964;-2.212;2022-12-08T07:46:25;0.90;;;0.60;;
22480;SDS011;11407;56.964;-2.212;2022-12-08T07:48:51;0.77;;;0.53;;
22480;SDS011;11407;56.964;-2.212;2022-12-08T07:51:19;0.60;;;0.50;;
22480;SDS011;11407;56.964;-2.212;2022-12-08T07:53:46;0.63;;;0.40;;
22480;SDS011;11407;56.964;-2.212;2022-12-08T07:56:13;0.47;;;0.43;;
22480;SDS011;11407;56.964;-2.212;2022-12-08T07:58:39;0.40;;;0.30;;
22480;SDS011;11407;56.964;-2.212;2022-12-08T08:01:05;0.40;;;0.40;;
22480;SDS011;11407;56.964;-2.212;2022-12-08T08:03:31;1.47;;;0.70;;
22480;SDS011;11407;56.964;-2.212;2022-12-08T08:06:03;0.40;;;0.40;;
22480;SDS011;11407;56.964;-2.212;2022-12-08T08:08:29;0.83;;;0.63;;
22480;SDS011;11407;56.964;-2.212;2022-12-08T08:10:55;2.47;;;0.60;;
22480;SDS011;11407;56.964;-2.212;2022-12-08T08:13:20;1.37;;;0.40;;
22480;SDS011;11407;56.964;-2.212;2022-12-08T08:15:45;0.93;;;0.40;;
22480;SDS011;11407;56.964;-2.212;2022-12-08T08:18:11;0.67;;;0.40;;
22480;SDS011;11407;56.964;-2.212;2022-12-08T08:20:36;2.20;;;0.70;;
22480;SDS011;11407;56.964;-2.212;2022-12-08T08:23:02;4.00;;;0.70;;
22480;SDS011;11407;56.964;-2.212;2022-12-08T08:25:27;0.77;;;0.60;;
22480;SDS011;11407;56.964;-2.212;2022-12-08T08:27:53;2.13;;;0.60;;
22480;SDS011;11407;56.964;-2.212;2022-12-08T08:30:19;1.00;;;0.47;;
22480;SDS011;11407;56.964;-2.212;2022-12-08T08:32:44;0.83;;;0.50;;
22480;SDS011;11407;56.964;-2.212;2022-12-08T08:35:10;2.90;;;0.47;;
22480;SDS011;11407;56.964;-2.212;2022-12-08T08:37:36;1.23;;;0.43;;
22480;SDS011;11407;56.964;-2.212;2022-12-08T08:40:02;1.00;;;0.43;;
22480;SDS011;11407;56.964;-2.212;2022-12-08T08:42:27;1.47;;;0.80;;
22480;SDS011;11407;56.964;-2.212;2022-12-08T08:44:53;0.80;;;0.60;;
22480;SDS011;11407;56.964;-2.212;2022-12-08T08:47:18;1.63;;;0.47;;
22480;SDS011;11407;56.964;-2.212;2022-12-08T08:49:44;3.03;;;0.97;;
22480;SDS011;11407;56.964;-2.212;2022-12-08T08:52:10;1.23;;;0.90;;
22480;SDS011;11407;56.964;-2.212;2022-12-08T08:54:35;2.57;;;0.70;;
22480;SDS011;11407;56.964;-2.212;2022-12-08T08:57:01;1.10;;;0.50;;
22480;SDS011;11407;56.964;-2.212;2022-12-08T08:59:26;1.30;;;0.50;;
22480;SDS011;11407;56.964;-2.212;2022-12-08T09:01:53;2.53;;;0.67;;
22480;SDS011;11407;56.964;-2.212;2022-12-08T09:04:20;1.90;;;0.60;;
22480;SDS011;11407;56.964;-2.212;2022-12-08T09:06:46;1.63;;;0.53;;
22480;SDS011;11407;56.964;-2.212;2022-12-08T09:09:12;3.17;;;1.00;;
22480;SDS011;11407;56.964;-2.212;2022-12-08T09:11:38;0.90;;;0.50;;
22480;SDS011;11407;56.964;-2.212;2022-12-08T09:14:04;0.50;;;0.50;;
22480;SDS011;11407;56.964;-2.212;2022-12-08T09:16:30;2.23;;;0.50;;
22480;SDS011;11407;56.964;-2.212;2022-12-08T09:18:56;1.70;;;0.70;;
22480;SDS011;11407;56.964;-2.212;2022-12-08T09:21:22;1.53;;;0.53;;
22480;SDS011;11407;56.964;-2.212;2022-12-08T09:23:51;0.57;;;0.50;;
22480;SDS011;11407;56.964;-2.212;2022-12-08T09:26:18;1.27;;;0.57;;
22480;SDS011;11407;56.964;-2.212;2022-12-08T09:28:46;1.40;;;0.50;;
22480;SDS011;11407;56.964;-2.212;2022-12-08T09:31:14;0.60;;;0.50;;
22480;SDS011;11407;56.964;-2.212;2022-12-08T09:33:41;0.97;;;0.40;;
22480;SDS011;11407;56.964;-2.212;2022-12-08T09:36:07;1.83;;;0.50;;
22480;SDS011;11407;56.964;-2.212;2022-12-08T09:38:33;3.80;;;1.23;;
22480;SDS011;11407;56.964;-2.212;2022-12-08T09:40:59;2.43;;;0.37;;
22480;SDS011;11407;56.964;-2.212;2022-12-08T09:46:09;1.73;;;0.60;;
22480;SDS011;11407;56.964;-2.212;2022-12-08T09:48:39;1.00;;;0.50;;
22480;SDS011;11407;56.964;-2.212;2022-12-08T09:51:09;0.90;;;0.63;;
22480;SDS011;11407;56.964;-2.212;2022-12-08T09:53:40;2.10;;;0.60;;
22480;SDS011;11407;56.964;-2.212;2022-12-08T09:58:50;2.93;;;0.40;;
22480;SDS011;11407;56.964;-2.212;2022-12-08T10:01:21;0.40;;;0.40;;
22480;SDS011;11407;56.964;-2.212;2022-12-08T10:03:50;1.07;;;0.40;;
22480;SDS011;11407;56.964;-2.212;2022-12-08T10:11:48;0.87;;;0.67;;
22480;SDS011;11407;56.964;-2.212;2022-12-08T10:16:50;0.70;;;0.53;;
22480;SDS011;11407;56.964;-2.212;2022-12-08T10:19:21;2.40;;;0.80;;
22480;SDS011;11407;56.964;-2.212;2022-12-08T10:21:48;1.33;;;0.50;;
22480;SDS011;11407;56.964;-2.212;2022-12-08T10:27:11;1.90;;;0.60;;
22480;SDS011;11407;56.964;-2.212;2022-12-08T10:29:37;1.17;;;0.80;;
22480;SDS011;11407;56.964;-2.212;2022-12-08T10:32:08;0.40;;;0.40;;
22480;SDS011;11407;56.964;-2.212;2022-12-08T10:37:24;1.10;;;0.60;;
22480;SDS011;11407;56.964;-2.212;2022-12-08T10:39:55;0.67;;;0.50;;
22480;SDS011;11407;56.964;-2.212;2022-12-08T10:42:46;1.70;;;0.60;;
22480;SDS011;11407;56.964;-2.212;2022-12-08T10:50:43;1.53;;;0.60;;
22480;SDS011;11407;56.964;-2.212;2022-12-08T10:58:35;1.60;;;0.50;;
22480;SDS011;11407;56.964;-2.212;2022-12-08T11:01:12;0.87;;;0.47;;
22480;SDS011;11407;56.964;-2.212;2022-12-08T11:03:53;1.10;;;0.60;;
22480;SDS011;11407;56.964;-2.212;2022-12-08T11:08:53;0.60;;;0.50;;
22480;SDS011;11407;56.964;-2.212;2022-12-08T11:11:36;0.50;;;0.47;;
22480;SDS011;11407;56.964;-2.212;2022-12-08T11:14:04;0.60;;;0.60;;
22480;SDS011;11407;56.964;-2.212;2022-12-08T11:16:32;0.63;;;0.40;;
22480;SDS011;11407;56.964;-2.212;2022-12-08T11:18:57;1.23;;;0.80;;
22480;SDS011;11407;56.964;-2.212;2022-12-08T11:21:33;1.00;;;0.90;;
22480;SDS011;11407;56.964;-2.212;2022-12-08T11:24:35;1.20;;;0.80;;
22480;SDS011;11407;56.964;-2.212;2022-12-08T11:26:57;1.40;;;0.60;;
22480;SDS011;11407;56.964;-2.212;2022-12-08T11:29:26;1.23;;;0.60;;
22480;SDS011;11407;56.964;-2.212;2022-12-08T11:31:59;1.63;;;0.60;;
22480;SDS011;11407;56.964;-2.212;2022-12-08T11:34:37;1.60;;;0.50;;
22480;SDS011;11407;56.964;-2.212;2022-12-08T11:37:15;0.83;;;0.50;;
22480;SDS011;11407;56.964;-2.212;2022-12-08T11:40:03;1.00;;;0.73;;
22480;SDS011;11407;56.964;-2.212;2022-12-08T11:42:33;1.40;;;0.60;;
22480;SDS011;11407;56.964;-2.212;2022-12-08T11:45:09;4.03;;;1.10;;
22480;SDS011;11407;56.964;-2.212;2022-12-08T11:47:42;6.47;;;1.30;;
22480;SDS011;11407;56.964;-2.212;2022-12-08T11:50:18;4.43;;;1.43;;
22480;SDS011;11407;56.964;-2.212;2022-12-08T11:52:56;1.67;;;0.90;;
22480;SDS011;11407;56.964;-2.212;2022-12-08T11:55:40;1.70;;;0.80;;
22480;SDS011;11407;56.964;-2.212;2022-12-08T11:58:20;1.50;;;1.00;;
22480;SDS011;11407;56.964;-2.212;2022-12-08T12:00:50;1.50;;;0.80;;
22480;SDS011;11407;56.964;-2.212;2022-12-08T12:06:16;1.27;;;0.60;;
22480;SDS011;11407;56.964;-2.212;2022-12-08T12:16:43;2.77;;;0.87;;
22480;SDS011;11407;56.964;-2.212;2022-12-08T12:19:20;2.73;;;1.00;;
22480;SDS011;11407;56.964;-2.212;2022-12-08T12:21:49;3.07;;;0.83;;
22480;SDS011;11407;56.964;-2.212;2022-12-08T12:24:20;2.17;;;1.00;;
22480;SDS011;11407;56.964;-2.212;2022-12-08T12:29:24;2.87;;;0.90;;
22480;SDS011;11407;56.964;-2.212;2022-12-08T12:32:03;2.33;;;1.00;;
22480;SDS011;11407;56.964;-2.212;2022-12-08T12:34:35;2.30;;;0.93;;
22480;SDS011;11407;56.964;-2.212;2022-12-08T12:39:46;4.50;;;1.20;;
22480;SDS011;11407;56.964;-2.212;2022-12-08T12:52:57;4.13;;;1.50;;
22480;SDS011;11407;56.964;-2.212;2022-12-08T12:55:26;4.50;;;1.50;;
22480;SDS011;11407;56.964;-2.212;2022-12-08T12:57:53;5.50;;;1.40;;
22480;SDS011;11407;56.964;-2.212;2022-12-08T13:00:22;3.60;;;1.07;;
22480;SDS011;11407;56.964;-2.212;2022-12-08T13:02:49;3.93;;;1.50;;
22480;SDS011;11407;56.964;-2.212;2022-12-08T13:10:18;4.00;;;1.23;;
22480;SDS011;11407;56.964;-2.212;2022-12-08T13:13:16;5.20;;;1.40;;
22480;SDS011;11407;56.964;-2.212;2022-12-08T13:15:49;6.90;;;1.07;;
22480;SDS011;11407;56.964;-2.212;2022-12-08T13:18:55;4.20;;;1.10;;
22480;SDS011;11407;56.964;-2.212;2022-12-08T13:21:13;7.40;;;1.37;;
22480;SDS011;11407;56.964;-2.212;2022-12-08T13:26:14;4.03;;;1.50;;
22480;SDS011;11407;56.964;-2.212;2022-12-08T13:34:18;2.23;;;1.00;;
22480;SDS011;11407;56.964;-2.212;2022-12-08T13:39:23;1.90;;;0.90;;
22480;SDS011;11407;56.964;-2.212;2022-12-08T13:41:57;3.33;;;1.20;;
22480;SDS011;11407;56.964;-2.212;2022-12-08T13:44:47;7.33;;;2.13;;
22480;SDS011;11407;56.964;-2.212;2022-12-08T13:47:21;4.17;;;2.00;;
22480;SDS011;11407;56.964;-2.212;2022-12-08T13:49:58;6.00;;;2.50;;
22480;SDS011;11407;56.964;-2.212;2022-12-08T13:52:31;5.33;;;1.60;;
22480;SDS011;11407;56.964;-2.212;2022-12-08T13:55:01;6.37;;;1.63;;
22480;SDS011;11407;56.964;-2.212;2022-12-08T13:57:29;6.00;;;2.00;;
22480;SDS011;11407;56.964;-2.212;2022-12-08T14:00:01;4.90;;;1.87;;
22480;SDS011;11407;56.964;-2.212;2022-12-08T14:02:34;4.73;;;1.80;;
22480;SDS011;11407;56.964;-2.212;2022-12-08T14:05:02;5.43;;;1.70;;
22480;SDS011;11407;56.964;-2.212;2022-12-08T14:07:28;3.70;;;1.70;;
22480;SDS011;11407;56.964;-2.212;2022-12-08T14:09:56;6.07;;;1.87;;
22480;SDS011;11407;56.964;-2.212;2022-12-08T14:12:24;6.83;;;1.93;;
22480;SDS011;11407;56.964;-2.212;2022-12-08T14:15:02;6.87;;;2.10;;
22480;SDS011;11407;56.964;-2.212;2022-12-08T14:17:30;8.90;;;2.07;;
22480;SDS011;11407;56.964;-2.212;2022-12-08T14:22:37;5.13;;;1.80;;
22480;SDS011;11407;56.964;-2.212;2022-12-08T14:25:05;7.70;;;2.57;;
22480;SDS011;11407;56.964;-2.212;2022-12-08T14:27:35;10.00;;;2.50;;
22480;SDS011;11407;56.964;-2.212;2022-12-08T14:30:06;7.37;;;2.13;;
22480;SDS011;11407;56.964;-2.212;2022-12-08T14:32:49;4.53;;;1.80;;
22480;SDS011;11407;56.964;-2.212;2022-12-08T14:37:54;8.67;;;1.73;;
22480;SDS011;11407;56.964;-2.212;2022-12-08T14:45:32;7.23;;;2.03;;
22480;SDS011;11407;56.964;-2.212;2022-12-08T14:59:24;8.47;;;1.73;;
22480;SDS011;11407;56.964;-2.212;2022-12-08T15:01:52;7.37;;;1.67;;
22480;SDS011;11407;56.964;-2.212;2022-12-08T15:04:34;5.30;;;1.63;;
22480;SDS011;11407;56.964;-2.212;2022-12-08T15:07:04;7.57;;;1.77;;
22480;SDS011;11407;56.964;-2.212;2022-12-08T15:09:37;5.67;;;1.30;;
22480;SDS011;11407;56.964;-2.212;2022-12-08T15:14:34;6.83;;;1.80;;
22480;SDS011;11407;56.964;-2.212;2022-12-08T15:17:01;6.13;;;1.60;;
22480;SDS011;11407;56.964;-2.212;2022-12-08T15:19:29;7.13;;;1.77;;
22480;SDS011;11407;56.964;-2.212;2022-12-08T15:21:56;7.13;;;1.87;;
22480;SDS011;11407;56.964;-2.212;2022-12-08T15:24:25;4.80;;;1.90;;
22480;SDS011;11407;56.964;-2.212;2022-12-08T15:26:53;4.83;;;1.27;;
22480;SDS011;11407;56.964;-2.212;2022-12-08T15:29:20;3.87;;;1.40;;
22480;SDS011;11407;56.964;-2.212;2022-12-08T15:31:48;6.73;;;1.60;;
22480;SDS011;11407;56.964;-2.212;2022-12-08T15:34:14;9.97;;;2.13;;
22480;SDS011;11407;56.964;-2.212;2022-12-08T15:36:44;5.37;;;1.40;;
22480;SDS011;11407;56.964;-2.212;2022-12-08T15:39:16;7.83;;;1.93;;
22480;SDS011;11407;56.964;-2.212;2022-12-08T15:42:05;6.30;;;1.70;;
22480;SDS011;11407;56.964;-2.212;2022-12-08T15:44:35;4.73;;;1.67;;
22480;SDS011;11407;56.964;-2.212;2022-12-08T15:47:01;5.67;;;1.70;;
22480;SDS011;11407;56.964;-2.212;2022-12-08T15:49:26;6.83;;;1.30;;
22480;SDS011;11407;56.964;-2.212;2022-12-08T15:51:52;3.07;;;1.43;;
22480;SDS011;11407;56.964;-2.212;2022-12-08T15:54:18;6.10;;;2.07;;
22480;SDS011;11407;56.964;-2.212;2022-12-08T15:57:01;7.37;;;2.63;;
22480;SDS011;11407;56.964;-2.212;2022-12-08T15:59:27;6.13;;;1.97;;
22480;SDS011;11407;56.964;-2.212;2022-12-08T16:01:52;6.37;;;2.60;;
22480;SDS011;11407;56.964;-2.212;2022-12-08T16:04:19;5.93;;;1.50;;
22480;SDS011;11407;56.964;-2.212;2022-12-08T16:06:46;4.23;;;1.53;;
22480;SDS011;11407;56.964;-2.212;2022-12-08T16:12:05;8.60;;;2.17;;
22480;SDS011;11407;56.964;-2.212;2022-12-08T16:14:59;4.30;;;1.40;;
22480;SDS011;11407;56.964;-2.212;2022-12-08T16:17:25;6.00;;;1.90;;
22480;SDS011;11407;56.964;-2.212;2022-12-08T16:19:51;3.03;;;1.57;;
22480;SDS011;11407;56.964;-2.212;2022-12-08T16:22:17;8.13;;;2.17;;
22480;SDS011;11407;56.964;-2.212;2022-12-08T16:24:53;6.27;;;1.97;;
22480;SDS011;11407;56.964;-2.212;2022-12-08T16:27:24;5.87;;;1.70;;
22480;SDS011;11407;56.964;-2.212;2022-12-08T16:29:52;6.10;;;1.60;;
22480;SDS011;11407;56.964;-2.212;2022-12-08T16:32:19;4.67;;;1.57;;
22480;SDS011;11407;56.964;-2.212;2022-12-08T16:34:44;5.57;;;1.80;;
22480;SDS011;11407;56.964;-2.212;2022-12-08T16:37:13;7.03;;;1.60;;
22480;SDS011;11407;56.964;-2.212;2022-12-08T16:39:40;4.70;;;1.37;;
22480;SDS011;11407;56.964;-2.212;2022-12-08T16:42:10;3.60;;;1.53;;
22480;SDS011;11407;56.964;-2.212;2022-12-08T16:44:56;7.90;;;1.60;;
22480;SDS011;11407;56.964;-2.212;2022-12-08T16:47:22;6.60;;;1.77;;
22480;SDS011;11407;56.964;-2.212;2022-12-08T16:49:48;4.83;;;1.63;;
22480;SDS011;11407;56.964;-2.212;2022-12-08T16:52:13;5.83;;;1.40;;
22480;SDS011;11407;56.964;-2.212;2022-12-08T16:54:41;8.17;;;1.50;;
22480;SDS011;11407;56.964;-2.212;2022-12-08T16:57:06;4.17;;;0.90;;
22480;SDS011;11407;56.964;-2.212;2022-12-08T16:59:32;5.17;;;1.50;;